Flight Track Log - Related Links

Times and Time Zones

All times are in EDT time to prevent confusion due to time zone crossing. See the BJS444 flight status page for this flight to view local times or setup timezone preferences in your user account.

Time Position Orientation Groundspeed Altitude Reporting Facility
EDT Latitude Longitude Course Direction KTS MPH feet Rate Location/Type
Mon 09:22:12 AM 40.2750 -83.0889 107° East 167 192 2,000  Level Indianapolis Center
Mon 09:22:37 AM 40.2686 -83.0608 107° East 193 222 2,800 2,550 Climbing Indianapolis Center
Mon 09:22:52 AM 40.2636 -83.0456 113° Southeast 206 237 3,700 4,478 Climbing Indianapolis Center
Mon 09:23:44 AM 40.2472 -82.9764 107° East 223 257 7,800 3,145 Climbing Indianapolis Center
Mon 09:24:56 AM 40.2225 -82.8753 108° East 274 315 10,200 2,463 Climbing Indianapolis Center
Mon 09:25:58 AM 40.1897 -82.7600 110° East 335 386 13,300 3,629 Climbing Indianapolis Center
Mon 09:27:00 AM 40.1528 -82.6261 110° East 385 443 17,700 4,065 Climbing Indianapolis Center
Mon 09:28:02 AM 40.1050 -82.4619 111° Southeast 408 470 21,700 3,242 Climbing Indianapolis Center
Mon 09:29:04 AM 40.0636 -82.3139 110° East 427 491 24,400 2,758 Climbing Indianapolis Center
Mon 09:30:06 AM 40.0200 -82.1656 111° Southeast 431 496 27,400 2,855 Climbing Indianapolis Center
Mon 09:31:08 AM 39.9781 -82.0189 110° East 429 494 30,300 2,323 Climbing Indianapolis Center
Mon 09:32:10 AM 39.9342 -81.8733 111° Southeast 427 491 32,200 1,548 Climbing Indianapolis Center
Mon 09:33:12 AM 39.8892 -81.7164 110° East 454 522 33,500 1,394 Climbing Indianapolis Center
Mon 09:33:49 AM 39.8542 -81.6081 113° Southeast 454 522 34,500 928 Climbing Cleveland Center
Mon 09:34:49 AM 39.8075 -81.4533 111° Southeast 454 522 35,000 250 Climbing Cleveland Center
Mon 09:35:49 AM 39.7689 -81.3094 109° East 454 522 35,000  Level Cleveland Center
Mon 09:36:49 AM 39.7217 -81.1581 112° Southeast 460 529 35,000  Level Cleveland Center
Mon 09:37:49 AM 39.6683 -80.9850 112° Southeast 460 529 35,000  Level Cleveland Center
Mon 09:38:49 AM 39.6186 -80.8311 113° Southeast 460 529 35,000  Level Cleveland Center
Mon 09:39:24 AM 39.5956 -80.7661 115° Southeast 462 532 35,000  Level Indianapolis Center
Mon 09:40:26 AM 39.5019 -80.6147 129° Southeast 451 519 35,000  Level Indianapolis Center
Mon 09:40:49 AM 39.4689 -80.5803 141° Southeast 441 507 35,000 -1,790 Level Cleveland Center
Mon 09:42:30 AM 39.3017 -80.4206 144° Southeast 445 512 31,300 -2,190 Descending Indianapolis Center
Mon 09:43:06 AM 39.2500 -80.3681 142° Southeast 445 512 30,000 -1,438 Descending Washington Center
Mon 09:44:06 AM 39.1536 -80.2761 143° Southeast 445 512 29,000 -950 Descending Washington Center
Mon 09:45:06 AM 39.0592 -80.1869 144° Southeast 434 499 28,100 -1,000 Descending Washington Center
Mon 09:46:06 AM 38.9561 -80.0950 145° Southeast 428 493 27,000 -1,050 Descending Washington Center
Mon 09:47:06 AM 38.8617 -80.0067 144° Southeast 423 487 26,000 -1,000 Descending Washington Center
Mon 09:48:06 AM 38.7686 -79.9211 144° Southeast 418 481 25,000 -900 Descending Washington Center
Mon 09:49:06 AM 38.6781 -79.8361 144° Southeast 412 474 24,200 -900 Descending Washington Center
Mon 09:50:06 AM 38.5953 -79.7542 142° Southeast 412 474 23,200 -950 Descending Washington Center
Mon 09:51:06 AM 38.5044 -79.6694 144° Southeast 412 474 22,300 -950 Descending Washington Center
Mon 09:52:06 AM 38.4153 -79.5878 144° Southeast 412 474 21,300 -650 Descending Washington Center
Mon 09:53:06 AM 38.3306 -79.5064 143° Southeast 405 466 21,000 -150 Descending Washington Center
Mon 09:54:06 AM 38.2333 -79.4142 143° Southeast 400 460 21,000  Level Washington Center
Mon 09:55:06 AM 38.1442 -79.3331 144° Southeast 395 455 21,000  Level Washington Center
Mon 09:56:06 AM 38.0569 -79.2494 143° Southeast 395 455 21,000 -200 Level Washington Center
Mon 09:57:06 AM 37.9678 -79.1661 144° Southeast 395 455 20,600 -750 Descending Washington Center
Mon 09:58:06 AM 37.8892 -79.0731 137° Southeast 395 455 19,500 -1,100 Descending Washington Center
Mon 09:59:06 AM 37.8533 -78.9425 109° East 378 435 18,400 -1,000 Descending Washington Center
Mon 10:00:06 AM 37.8231 -78.8281 108° East 378 435 17,500 -1,450 Descending Washington Center
Mon 10:01:06 AM 37.7867 -78.7056 111° Southeast 378 435 15,500 -2,000 Descending Washington Center
Mon 10:02:06 AM 37.7522 -78.5861 110° East 372 428 13,500 -1,600 Descending Washington Center
Mon 10:03:06 AM 37.7194 -78.4717 110° East 357 411 12,300 -1,350 Descending Washington Center
Mon 10:04:06 AM 37.6847 -78.3497 110° East 345 397 10,800 -1,350 Descending Washington Center
Mon 10:05:06 AM 37.6558 -78.2517 110° East 328 377 9,600 -900 Descending Washington Center
Mon 10:06:06 AM 37.6267 -78.1561 111° Southeast 302 348 9,000 -300 Descending Washington Center
Mon 10:07:06 AM 37.5992 -78.0636 111° Southeast 289 333 9,000  Level Washington Center
Mon 10:08:06 AM 37.5719 -77.9711 110° East 289 333 9,000 -450 Level Washington Center
Mon 10:09:06 AM 37.5444 -77.8836 112° Southeast 278 320 8,100 -950 Descending Washington Center
Mon 10:10:06 AM 37.5192 -77.7914 109° East 278 320 7,100 -1,000 Descending Washington Center
Mon 10:11:06 AM 37.4956 -77.7042 109° East 271 312 6,100 -1,000 Descending Washington Center
Mon 10:12:06 AM 37.4700 -77.6197 111° Southeast 266 306 5,100 -1,000 Descending Washington Center
Mon 10:13:06 AM 37.4442 -77.5381 112° Southeast 260 299 4,100 -1,350 Descending Washington Center
Mon 10:14:06 AM 37.4203 -77.4617 111° Southeast 249 287 2,400 -708 Descending Washington Center
Mon 10:16:04 AM 37.4167 -77.3167 92° East 217 250 2,000 -201 Descending Potomac TRACON
Mon 10:17:05 AM 37.4333 -77.2667 67° East 159 183 1,800 -595 Descending Potomac TRACON
Mon 10:18:05 AM 37.4667 -77.2833 338° Northwest 125 144 800 -1,000 Descending Potomac TRACON
Mon 10:20:00 AM 37.5000 -77.3167 North  Level FlightAware Approximate
Mon 10:27:00 AM 37.5052 -77.3197 North  Level Estimated
Mon 10:28:00 AM 37.5000 -77.3167 North  Level FlightAware Approximate
Mon 10:29:00 AM 37.5052 -77.3197 North  Level Estimated

Login

Don't have an account? Register now (free) for customized features, flight alerts, and more!